createdAt,value
2022-07-28T00:00:10.782Z,15.36
2022-07-28T00:02:40.738Z,15.40
2022-07-28T00:05:11.458Z,15.27
2022-07-28T00:07:41.252Z,15.27
2022-07-28T00:10:14.609Z,15.26
2022-07-28T00:12:44.764Z,15.19
2022-07-28T00:15:15.173Z,15.21
2022-07-28T00:17:44.950Z,15.22
2022-07-28T00:20:16.351Z,15.27
2022-07-28T00:22:47.121Z,15.28
2022-07-28T00:25:19.493Z,15.26
2022-07-28T00:27:53.752Z,15.23
2022-07-28T00:30:25.924Z,15.12
2022-07-28T00:32:56.493Z,15.05
2022-07-28T00:35:30.957Z,14.98
2022-07-28T00:38:02.570Z,15.01
2022-07-28T00:40:53.216Z,14.89
2022-07-28T00:43:22.967Z,14.87
2022-07-28T00:45:54.375Z,14.78
2022-07-28T00:48:25.522Z,14.82
2022-07-28T00:50:56.237Z,14.71
2022-07-28T00:53:27.094Z,14.69
2022-07-28T00:56:03.444Z,14.60
2022-07-28T00:58:37.589Z,14.56
2022-07-28T01:01:08.101Z,14.62
2022-07-28T01:03:40.850Z,14.65
2022-07-28T01:06:19.611Z,14.69
2022-07-28T01:09:00.972Z,14.75
2022-07-28T01:11:42.737Z,14.71
2022-07-28T01:14:18.527Z,14.69
2022-07-28T01:17:03.761Z,14.66
2022-07-28T01:19:43.226Z,14.66
2022-07-28T01:22:17.603Z,14.61
2022-07-28T01:24:54.078Z,14.74
2022-07-28T01:27:53.144Z,14.76
2022-07-28T01:30:35.429Z,14.69
2022-07-28T01:33:11.475Z,14.70
2022-07-28T01:35:48.705Z,14.68
2022-07-28T01:38:22.201Z,14.63
2022-07-28T01:40:54.903Z,14.61
2022-07-28T01:43:27.903Z,14.56
2022-07-28T01:46:01.965Z,14.33
2022-07-28T01:48:34.672Z,14.31
2022-07-28T01:51:07.293Z,14.10
2022-07-28T01:53:40.582Z,13.92
2022-07-28T01:56:11.438Z,13.77
2022-07-28T01:58:43.357Z,13.81
2022-07-28T02:01:17.616Z,13.77
2022-07-28T02:03:51.311Z,13.76
2022-07-28T02:06:23.604Z,13.66
2022-07-28T02:08:56.239Z,13.61
2022-07-28T02:11:44.690Z,13.64
2022-07-28T02:14:17.170Z,13.54
2022-07-28T02:16:53.169Z,13.51
2022-07-28T02:19:24.491Z,13.44
2022-07-28T02:21:57.461Z,13.44
2022-07-28T02:24:29.887Z,13.31
2022-07-28T02:27:02.764Z,13.23
2022-07-28T02:29:50.814Z,13.21
2022-07-28T02:32:32.746Z,13.05
2022-07-28T02:35:09.478Z,13.14
2022-07-28T02:37:46.698Z,13.07
2022-07-28T02:40:19.896Z,13.07
2022-07-28T02:42:52.952Z,12.98
2022-07-28T02:45:26.727Z,12.96
2022-07-28T02:48:03.278Z,12.89
2022-07-28T02:50:34.551Z,12.89
2022-07-28T02:53:15.553Z,13.01
2022-07-28T02:55:49.583Z,13.00
2022-07-28T02:58:22.268Z,13.10
2022-07-28T03:00:53.698Z,13.08
2022-07-28T03:03:27.159Z,13.06
2022-07-28T03:05:57.260Z,13.02
2022-07-28T03:08:27.285Z,13.02
2022-07-28T03:11:09.965Z,12.96
2022-07-28T03:13:40.157Z,12.92
2022-07-28T03:16:11.561Z,12.93
2022-07-28T03:18:44.089Z,12.96
2022-07-28T03:21:13.776Z,13.08
2022-07-28T03:23:45.785Z,13.06
2022-07-28T03:26:21.182Z,13.11
2022-07-28T03:28:53.209Z,13.02
2022-07-28T03:31:25.119Z,13.09
2022-07-28T03:33:59.061Z,13.13
2022-07-28T03:36:43.222Z,13.16
2022-07-28T03:39:16.157Z,13.14
2022-07-28T03:41:48.402Z,13.19
2022-07-28T03:44:27.995Z,13.20
2022-07-28T03:46:59.197Z,13.10
2022-07-28T03:49:31.657Z,13.12
2022-07-28T03:52:03.928Z,13.14
2022-07-28T03:54:34.314Z,13.19
2022-07-28T03:57:03.939Z,13.19
2022-07-28T03:59:33.665Z,13.25
2022-07-28T04:02:03.508Z,13.18
2022-07-28T04:04:36.510Z,13.23
2022-07-28T04:07:06.773Z,13.25
2022-07-28T04:09:37.621Z,13.33
2022-07-28T04:12:08.278Z,13.33
2022-07-28T04:14:38.492Z,13.38
2022-07-28T04:17:09.418Z,13.35
2022-07-28T04:19:43.621Z,13.20
2022-07-28T04:22:13.956Z,13.22
2022-07-28T04:24:43.621Z,13.28
2022-07-28T04:27:13.435Z,13.23
2022-07-28T04:29:43.135Z,13.27
2022-07-28T04:32:14.023Z,13.37
2022-07-28T04:34:47.309Z,13.47
2022-07-28T04:37:18.605Z,13.47
2022-07-28T04:39:49.278Z,13.57
2022-07-28T04:42:21.457Z,13.66
2022-07-28T04:44:51.227Z,13.68
2022-07-28T04:47:21.874Z,13.58
2022-07-28T04:49:54.981Z,13.73
2022-07-28T04:52:25.970Z,13.84
2022-07-28T04:54:56.378Z,14.00
2022-07-28T04:57:28.126Z,14.06
2022-07-28T04:59:57.803Z,14.07
2022-07-28T05:02:27.659Z,13.98
2022-07-28T05:05:01.337Z,14.06
2022-07-28T05:07:31.645Z,14.08
2022-07-28T05:10:01.272Z,14.10
2022-07-28T05:12:32.157Z,14.28
2022-07-28T05:15:04.849Z,14.28
2022-07-28T05:17:35.149Z,14.28
2022-07-28T05:20:09.255Z,14.42
2022-07-28T05:22:46.979Z,14.46
2022-07-28T05:25:22.243Z,14.34
2022-07-28T05:27:59.579Z,14.29
2022-07-28T05:30:29.839Z,14.42
2022-07-28T05:33:02.057Z,14.62
2022-07-28T05:35:34.714Z,14.60
2022-07-28T05:38:08.914Z,14.71
2022-07-28T05:40:41.099Z,14.81
2022-07-28T05:43:12.483Z,14.74
2022-07-28T05:45:42.768Z,14.87
2022-07-28T05:48:12.764Z,14.96
2022-07-28T05:50:45.673Z,15.21
2022-07-28T05:53:15.824Z,15.46
2022-07-28T05:56:00.085Z,15.54
2022-07-28T05:58:32.616Z,15.92
2022-07-28T06:01:05.188Z,15.97
2022-07-28T06:03:41.842Z,16.07
2022-07-28T06:06:16.964Z,16.15
2022-07-28T06:08:48.868Z,15.89
2022-07-28T06:11:22.731Z,16.19
2022-07-28T06:13:53.251Z,16.34
2022-07-28T06:16:24.284Z,16.53
2022-07-28T06:18:54.585Z,16.73
2022-07-28T06:21:28.445Z,16.82
2022-07-28T06:23:59.269Z,16.94
2022-07-28T06:26:29.245Z,17.00
2022-07-28T06:28:59.043Z,16.94
2022-07-28T06:31:29.103Z,16.99
2022-07-28T06:33:59.245Z,17.06
2022-07-28T06:36:31.940Z,16.96
2022-07-28T06:39:01.910Z,16.97
2022-07-28T06:41:31.606Z,16.84
2022-07-28T06:44:01.617Z,16.75
2022-07-28T06:46:31.984Z,16.79
2022-07-28T06:49:01.726Z,16.93
2022-07-28T06:51:34.546Z,17.10
2022-07-28T06:54:11.454Z,17.19
2022-07-28T06:56:41.568Z,17.34
2022-07-28T06:59:11.897Z,17.68
2022-07-28T07:01:42.133Z,17.65
2022-07-28T07:04:12.105Z,18.09
2022-07-28T07:06:45.034Z,18.33
2022-07-28T07:09:14.765Z,18.20
2022-07-28T07:11:44.441Z,18.59
2022-07-28T07:14:14.860Z,19.02
2022-07-28T07:16:44.999Z,19.37
2022-07-28T07:19:16.046Z,19.40
2022-07-28T07:21:49.069Z,19.61
2022-07-28T07:24:19.008Z,20.10
2022-07-28T07:26:48.726Z,20.23
2022-07-28T07:29:18.639Z,20.23
2022-07-28T07:31:52.715Z,20.34
2022-07-28T07:34:23.447Z,20.13
2022-07-28T07:36:58.412Z,20.41
2022-07-28T07:39:33.019Z,20.54
2022-07-28T07:42:05.796Z,20.62
2022-07-28T07:44:35.930Z,20.68
2022-07-28T07:47:08.109Z,20.93
2022-07-28T07:49:45.255Z,20.56
2022-07-28T07:52:21.675Z,20.71
2022-07-28T07:54:56.828Z,21.34
2022-07-28T07:57:30.868Z,21.28
2022-07-28T08:00:04.659Z,21.09
2022-07-28T08:02:43.180Z,21.29
2022-07-28T08:05:17.709Z,21.81
2022-07-28T08:07:52.646Z,21.97
2022-07-28T08:10:23.260Z,22.24
2022-07-28T08:12:53.291Z,22.26
2022-07-28T08:15:34.457Z,22.08
2022-07-28T08:18:04.819Z,21.84
2022-07-28T08:20:38.354Z,22.12
2022-07-28T08:23:14.240Z,22.22
2022-07-28T08:25:47.585Z,22.06
2022-07-28T08:28:20.897Z,21.45
2022-07-28T08:30:54.373Z,22.05
2022-07-28T08:33:24.615Z,22.20
2022-07-28T08:35:55.269Z,23.28
2022-07-28T08:38:28.321Z,23.56
2022-07-28T08:41:01.511Z,23.19
2022-07-28T08:43:37.008Z,23.95
2022-07-28T08:46:09.409Z,24.87
2022-07-28T08:49:01.540Z,24.81
2022-07-28T08:51:49.683Z,25.03
2022-07-28T08:54:44.065Z,25.59
2022-07-28T08:57:25.329Z,25.55
2022-07-28T08:59:59.245Z,24.30
2022-07-28T09:02:37.757Z,24.85
2022-07-28T09:05:22.265Z,24.93
2022-07-28T09:08:22.060Z,25.36
2022-07-28T09:11:38.381Z,25.06
2022-07-28T09:16:37.046Z,26.32
2022-07-28T09:18:43.365Z,27.29
2022-07-28T09:49:58.648Z,28.60
2022-07-28T09:52:32.612Z,28.75
2022-07-28T09:55:03.312Z,28.23
2022-07-28T09:57:34.318Z,28.34
2022-07-28T10:00:11.985Z,28.18
2022-07-28T10:02:42.083Z,29.34
2022-07-28T10:05:20.716Z,28.56
2022-07-28T10:07:53.325Z,29.08
2022-07-28T10:10:26.857Z,27.99
2022-07-28T10:13:07.909Z,28.63
2022-07-28T10:15:50.947Z,29.56
2022-07-28T10:18:20.748Z,29.04
2022-07-28T10:20:52.757Z,28.88
2022-07-28T10:23:23.150Z,28.29
2022-07-28T10:25:53.977Z,29.45
2022-07-28T10:28:24.642Z,30.05
2022-07-28T10:31:00.941Z,29.35
2022-07-28T10:33:34.102Z,29.22
2022-07-28T10:36:06.762Z,28.25
2022-07-28T10:38:38.894Z,30.37
2022-07-28T10:41:11.392Z,31.82
2022-07-28T10:43:45.669Z,29.76
2022-07-28T10:46:16.993Z,29.82
2022-07-28T10:48:47.573Z,30.46
2022-07-28T10:51:20.120Z,29.40
2022-07-28T10:53:55.535Z,29.06
2022-07-28T10:56:32.669Z,30.60
2022-07-28T10:59:15.892Z,32.26
2022-07-28T11:01:49.307Z,31.54
2022-07-28T11:04:51.888Z,29.75
2022-07-28T11:07:24.355Z,28.14
2022-07-28T11:09:54.945Z,28.44
2022-07-28T11:12:49.320Z,28.76
2022-07-28T11:15:33.909Z,28.23
2022-07-28T11:18:08.656Z,27.54
2022-07-28T11:21:09.602Z,28.21
2022-07-28T11:23:56.029Z,30.31
2022-07-28T11:26:39.789Z,30.02
2022-07-28T11:29:46.991Z,29.59
2022-07-28T11:32:16.379Z,29.75
2022-07-28T11:35:21.514Z,29.02
2022-07-28T11:38:12.947Z,31.57
2022-07-28T11:40:46.974Z,30.19
2022-07-28T11:43:43.445Z,30.29
2022-07-28T11:46:39.857Z,30.40
2022-07-28T11:49:24.930Z,31.04
2022-07-28T11:52:17.059Z,30.03
2022-07-28T11:54:52.760Z,28.75
2022-07-28T11:57:26.731Z,29.52
2022-07-28T11:59:58.974Z,29.59
2022-07-28T12:02:31.750Z,31.22
2022-07-28T12:05:07.423Z,30.85
2022-07-28T12:07:40.333Z,31.00
2022-07-28T12:10:51.842Z,32.18
2022-07-28T12:13:27.393Z,32.40
2022-07-28T12:15:56.871Z,30.85
2022-07-28T12:18:26.336Z,31.05
2022-07-28T12:20:56.164Z,31.47
2022-07-28T12:23:38.602Z,30.86
2022-07-28T12:26:10.205Z,30.27
2022-07-28T12:28:52.391Z,31.60
2022-07-28T12:31:25.925Z,32.26
2022-07-28T12:33:59.300Z,29.76
2022-07-28T12:36:29.821Z,29.83
2022-07-28T12:39:00.365Z,30.35
2022-07-28T12:41:35.281Z,29.76
2022-07-28T12:44:08.948Z,31.00
2022-07-28T12:46:38.465Z,30.84
2022-07-28T12:49:07.978Z,31.42
2022-07-28T12:51:38.784Z,29.80
2022-07-28T12:54:10.294Z,30.02
2022-07-28T12:56:50.071Z,28.90
2022-07-28T12:59:23.481Z,27.77
2022-07-28T13:01:55.255Z,28.42
2022-07-28T13:04:43.318Z,29.36
2022-07-28T13:07:14.524Z,29.57
2022-07-28T13:09:54.792Z,30.83
2022-07-28T13:12:31.026Z,29.83
2022-07-28T13:15:07.006Z,30.07
2022-07-28T13:17:52.346Z,30.10
2022-07-28T13:20:24.193Z,30.56
2022-07-28T13:22:55.539Z,30.74
2022-07-28T13:25:25.198Z,30.92
2022-07-28T13:27:55.374Z,31.38
2022-07-28T13:30:27.913Z,30.87
2022-07-28T13:32:58.554Z,31.64
2022-07-28T13:35:29.223Z,31.28
2022-07-28T13:37:58.673Z,31.41
2022-07-28T13:40:28.030Z,30.98
2022-07-28T13:42:57.430Z,31.50
2022-07-28T13:45:30.541Z,30.46
2022-07-28T13:48:00.112Z,30.09
2022-07-28T13:50:29.732Z,30.21
2022-07-28T13:52:59.793Z,30.08
2022-07-28T13:55:30.957Z,30.50
2022-07-28T13:58:01.685Z,30.74
2022-07-28T14:00:35.573Z,31.69
2022-07-28T14:03:08.344Z,30.69
2022-07-28T14:05:39.681Z,30.89
2022-07-28T14:08:09.305Z,30.59
2022-07-28T14:10:42.000Z,30.20
2022-07-28T14:13:17.909Z,30.22
2022-07-28T14:15:50.809Z,30.09
2022-07-28T14:18:31.677Z,30.19
2022-07-28T14:21:01.070Z,30.10
2022-07-28T14:23:30.438Z,30.65
2022-07-28T14:26:25.406Z,29.83
2022-07-28T14:28:49.746Z,29.16
2022-07-28T14:31:22.489Z,28.94
2022-07-28T14:33:54.690Z,29.07
2022-07-28T14:36:24.623Z,28.46
2022-07-28T14:38:54.754Z,29.15
2022-07-28T14:41:25.074Z,30.00
2022-07-28T14:43:56.399Z,30.67
2022-07-28T14:46:29.800Z,30.92
2022-07-28T14:48:59.522Z,30.93
2022-07-28T14:51:29.006Z,30.85
2022-07-28T14:53:58.543Z,30.96
2022-07-28T14:56:28.018Z,31.33
2022-07-28T14:58:57.576Z,30.51
2022-07-28T15:01:29.637Z,30.52
2022-07-28T15:04:05.761Z,30.71
2022-07-28T15:06:38.142Z,30.47
2022-07-28T15:09:08.579Z,31.26
2022-07-28T15:11:39.802Z,31.48
2022-07-28T15:14:09.426Z,31.86
2022-07-28T15:16:41.512Z,31.31
2022-07-28T15:19:11.306Z,30.87
2022-07-28T15:21:41.599Z,30.30
2022-07-28T15:24:12.540Z,30.92
2022-07-28T15:26:42.600Z,29.99
2022-07-28T15:29:11.962Z,32.11
2022-07-28T15:31:45.367Z,32.30
2022-07-28T15:34:16.414Z,30.89
2022-07-28T15:36:46.237Z,31.69
2022-07-28T15:39:16.617Z,31.77
2022-07-28T15:41:47.328Z,29.93
2022-07-28T15:44:18.341Z,30.48
2022-07-28T15:47:01.025Z,29.97
2022-07-28T15:49:33.483Z,30.71
2022-07-28T15:52:02.974Z,31.37
2022-07-28T15:54:32.548Z,31.02
2022-07-28T15:57:01.981Z,30.55
2022-07-28T15:59:48.770Z,30.24
2022-07-28T16:02:22.449Z,29.93
2022-07-28T16:04:54.706Z,29.74
2022-07-28T16:07:28.044Z,29.53
2022-07-28T16:09:58.337Z,28.96
2022-07-28T16:12:28.144Z,28.36
2022-07-28T16:14:58.237Z,27.92
2022-07-28T16:17:30.264Z,27.42
2022-07-28T16:20:02.441Z,27.37
2022-07-28T16:22:32.322Z,27.18
2022-07-28T16:25:01.820Z,27.13
2022-07-28T16:27:31.331Z,26.99
2022-07-28T16:30:01.858Z,26.95
2022-07-28T16:32:34.341Z,27.00
2022-07-28T16:35:03.770Z,26.86
2022-07-28T16:37:36.392Z,26.93
2022-07-28T16:40:06.751Z,26.95
2022-07-28T16:42:36.174Z,26.97
2022-07-28T16:45:06.564Z,26.82
2022-07-28T16:47:38.530Z,26.94
2022-07-28T16:50:08.827Z,26.80
2022-07-28T16:52:38.395Z,26.72
2022-07-28T16:55:14.687Z,26.61
2022-07-28T16:57:46.360Z,26.62
2022-07-28T17:00:17.319Z,26.59
2022-07-28T17:02:49.310Z,26.38
2022-07-28T17:05:18.861Z,26.37
2022-07-28T17:07:48.312Z,26.33
2022-07-28T17:10:21.293Z,26.38
2022-07-28T17:12:58.580Z,26.25
2022-07-28T17:15:28.188Z,26.11
2022-07-28T17:18:00.378Z,26.07
2022-07-28T17:20:29.831Z,25.96
2022-07-28T17:22:59.206Z,25.75
2022-07-28T17:25:50.232Z,25.73
2022-07-28T17:28:18.103Z,25.65
2022-07-28T17:30:47.767Z,25.65
2022-07-28T17:33:20.085Z,25.53
2022-07-28T17:35:50.867Z,25.48
2022-07-28T17:38:22.884Z,25.47
2022-07-28T17:40:52.955Z,25.32
2022-07-28T17:43:23.670Z,25.16
2022-07-28T17:45:55.099Z,25.10
2022-07-28T17:48:27.369Z,25.13
2022-07-28T17:50:56.726Z,25.15
2022-07-28T17:53:26.097Z,25.13
2022-07-28T17:56:01.339Z,25.12
2022-07-28T17:58:34.493Z,25.07
2022-07-28T18:01:10.088Z,25.02
2022-07-28T18:03:58.444Z,24.92
2022-07-28T18:06:35.519Z,24.72
2022-07-28T18:09:07.958Z,24.69
2022-07-28T18:11:56.834Z,24.65
2022-07-28T18:14:28.647Z,24.50
2022-07-28T18:16:58.528Z,24.42
2022-07-28T18:19:31.145Z,24.46
2022-07-28T18:22:00.526Z,24.44
2022-07-28T18:24:30.018Z,24.42
2022-07-28T18:26:59.412Z,24.38
2022-07-28T18:29:37.993Z,24.29
2022-07-28T18:32:10.138Z,24.20
2022-07-28T18:34:42.149Z,24.11
2022-07-28T18:37:12.706Z,24.02
2022-07-28T18:39:45.094Z,24.00
2022-07-28T18:42:15.962Z,23.96
2022-07-28T18:44:45.447Z,23.87
2022-07-28T18:47:17.670Z,23.79
2022-07-28T18:49:49.838Z,23.74
2022-07-28T18:52:20.266Z,23.66
2022-07-28T18:54:49.742Z,23.63
2022-07-28T18:57:19.077Z,23.56
2022-07-28T18:59:52.030Z,23.49
2022-07-28T19:02:22.055Z,23.40
2022-07-28T19:04:58.446Z,23.32
2022-07-28T19:07:27.875Z,23.27
2022-07-28T19:09:57.193Z,23.25
2022-07-28T19:12:29.348Z,23.21
2022-07-28T19:14:58.789Z,23.07
2022-07-28T19:17:31.203Z,23.00
2022-07-28T19:20:03.696Z,22.93
2022-07-28T19:22:33.220Z,22.82
2022-07-28T19:25:03.184Z,22.76
2022-07-28T19:27:34.020Z,22.65
2022-07-28T19:30:03.648Z,22.53
2022-07-28T19:32:33.038Z,22.48
2022-07-28T19:35:05.179Z,22.43
2022-07-28T19:37:34.597Z,22.37
2022-07-28T19:40:04.173Z,22.30
2022-07-28T19:42:35.289Z,22.24
2022-07-28T19:45:04.639Z,22.17
2022-07-28T19:47:36.902Z,22.13
2022-07-28T19:50:09.637Z,22.10
2022-07-28T19:52:39.209Z,22.05
2022-07-28T19:55:10.086Z,21.99
2022-07-28T19:57:42.159Z,21.91
2022-07-28T20:00:13.290Z,21.85
2022-07-28T20:02:43.088Z,21.81
2022-07-28T20:05:15.456Z,21.71
2022-07-28T20:07:46.143Z,21.68
2022-07-28T20:10:15.889Z,21.65
2022-07-28T20:12:47.519Z,21.47
2022-07-28T20:15:17.129Z,21.39
2022-07-28T20:17:46.799Z,21.33
2022-07-28T20:20:18.910Z,21.29
2022-07-28T20:22:49.790Z,21.25
2022-07-28T20:25:19.317Z,21.17
2022-07-28T20:27:48.771Z,21.14
2022-07-28T20:30:18.814Z,21.12
2022-07-28T20:32:48.276Z,21.04
2022-07-28T20:35:21.070Z,20.96
2022-07-28T20:37:50.635Z,20.86
2022-07-28T20:40:20.413Z,20.81
2022-07-28T20:42:53.296Z,20.80
2022-07-28T20:45:23.201Z,20.74
2022-07-28T20:47:52.664Z,20.70
2022-07-28T20:50:25.197Z,20.70
2022-07-28T20:52:54.748Z,20.60
2022-07-28T20:55:24.235Z,20.52
2022-07-28T20:57:55.914Z,20.42
2022-07-28T21:00:27.284Z,20.35
2022-07-28T21:02:56.704Z,20.23
2022-07-28T21:05:35.596Z,20.18
2022-07-28T21:08:09.613Z,20.13
2022-07-28T21:10:45.949Z,20.00
2022-07-28T21:13:15.541Z,20.00
2022-07-28T21:15:45.157Z,19.93
2022-07-28T21:18:14.749Z,19.92
2022-07-28T21:20:46.808Z,19.92
2022-07-28T21:23:17.940Z,19.86
2022-07-28T21:25:48.675Z,19.85
2022-07-28T21:28:30.661Z,19.70
2022-07-28T21:31:01.571Z,19.70
2022-07-28T21:33:31.072Z,19.63
2022-07-28T21:36:03.391Z,19.67
2022-07-28T21:38:32.934Z,19.61
2022-07-28T21:41:02.378Z,19.56
2022-07-28T21:43:33.969Z,19.52
2022-07-28T21:46:03.450Z,19.51
2022-07-28T21:48:33.618Z,19.43
2022-07-28T21:51:15.706Z,19.43
2022-07-28T21:53:49.215Z,19.34
2022-07-28T21:56:19.233Z,19.36
2022-07-28T21:58:49.346Z,19.31
2022-07-28T22:01:18.827Z,19.26
2022-07-28T22:03:48.236Z,19.24
2022-07-28T22:06:20.370Z,19.16
2022-07-28T22:08:53.873Z,19.10
2022-07-28T22:11:23.672Z,19.06
2022-07-28T22:13:53.126Z,19.04
2022-07-28T22:16:22.633Z,19.02
2022-07-28T22:18:52.751Z,19.01
2022-07-28T22:21:25.154Z,19.01
2022-07-28T22:23:54.702Z,18.96
2022-07-28T22:26:24.449Z,18.92
2022-07-28T22:28:58.005Z,18.89
2022-07-28T22:31:27.414Z,18.89
2022-07-28T22:33:56.927Z,18.85
2022-07-28T22:36:28.872Z,18.83
2022-07-28T22:38:58.333Z,18.83
2022-07-28T22:41:27.749Z,18.79
2022-07-28T22:43:57.236Z,18.80
2022-07-28T22:46:26.913Z,18.79
2022-07-28T22:48:56.430Z,18.69
2022-07-28T22:51:25.936Z,18.56
2022-07-28T22:53:58.959Z,18.59
2022-07-28T22:56:28.378Z,18.59
2022-07-28T22:59:06.518Z,18.54
2022-07-28T23:01:36.519Z,18.50
2022-07-28T23:04:07.639Z,18.54
2022-07-28T23:06:37.087Z,18.49
2022-07-28T23:09:09.124Z,18.43
2022-07-28T23:11:38.489Z,18.41
2022-07-28T23:14:07.862Z,18.38
2022-07-28T23:16:37.314Z,18.30
2022-07-28T23:19:06.878Z,18.26
2022-07-28T23:21:39.378Z,18.17
2022-07-28T23:24:11.726Z,18.15
2022-07-28T23:26:41.388Z,18.22
2022-07-28T23:29:11.122Z,18.25
2022-07-28T23:31:40.737Z,18.26
2022-07-28T23:34:10.175Z,18.27
2022-07-28T23:36:39.585Z,18.37
2022-07-28T23:39:11.550Z,18.36
2022-07-28T23:41:41.005Z,18.30
2022-07-28T23:44:10.390Z,18.24
2022-07-28T23:46:39.884Z,18.22
2022-07-28T23:49:09.751Z,18.25
2022-07-28T23:51:47.798Z,18.25
2022-07-28T23:54:20.672Z,18.23
2022-07-28T23:56:55.771Z,18.22
2022-07-28T23:59:25.471Z,18.23
